sensor_id;sensor_type;location;lat;lon;timestamp;P1;durP1;ratioP1;P2;durP2;ratioP2
2338;SDS011;1180;51.438;6.978;2024-02-21T00:00:04;18.73;;;9.17;;
2338;SDS011;1180;51.438;6.978;2024-02-21T00:02:30;16.83;;;8.67;;
2338;SDS011;1180;51.438;6.978;2024-02-21T00:04:55;21.67;;;10.13;;
2338;SDS011;1180;51.438;6.978;2024-02-21T00:07:20;19.07;;;10.73;;
2338;SDS011;1180;51.438;6.978;2024-02-21T00:09:46;15.07;;;9.17;;
2338;SDS011;1180;51.438;6.978;2024-02-21T00:12:11;21.17;;;10.20;;
2338;SDS011;1180;51.438;6.978;2024-02-21T00:14:38;25.50;;;10.40;;
2338;SDS011;1180;51.438;6.978;2024-02-21T00:17:04;16.90;;;9.30;;
2338;SDS011;1180;51.438;6.978;2024-02-21T00:19:29;17.33;;;9.47;;
2338;SDS011;1180;51.438;6.978;2024-02-21T00:21:55;21.93;;;9.83;;
2338;SDS011;1180;51.438;6.978;2024-02-21T00:24:20;24.07;;;9.90;;
2338;SDS011;1180;51.438;6.978;2024-02-21T00:26:45;15.03;;;9.23;;
2338;SDS011;1180;51.438;6.978;2024-02-21T00:29:11;22.23;;;10.03;;
2338;SDS011;1180;51.438;6.978;2024-02-21T00:31:36;18.40;;;10.10;;
2338;SDS011;1180;51.438;6.978;2024-02-21T00:34:01;20.43;;;10.07;;
2338;SDS011;1180;51.438;6.978;2024-02-21T00:36:27;23.70;;;11.90;;
2338;SDS011;1180;51.438;6.978;2024-02-21T00:38:52;22.73;;;10.47;;
2338;SDS011;1180;51.438;6.978;2024-02-21T00:41:17;19.30;;;11.27;;
2338;SDS011;1180;51.438;6.978;2024-02-21T00:43:43;27.83;;;11.73;;
2338;SDS011;1180;51.438;6.978;2024-02-21T00:46:08;23.63;;;11.63;;
2338;SDS011;1180;51.438;6.978;2024-02-21T00:48:33;18.60;;;10.80;;
2338;SDS011;1180;51.438;6.978;2024-02-21T00:50:59;12.50;;;9.37;;
2338;SDS011;1180;51.438;6.978;2024-02-21T00:53:24;22.20;;;10.73;;
2338;SDS011;1180;51.438;6.978;2024-02-21T00:55:50;21.77;;;10.80;;
2338;SDS011;1180;51.438;6.978;2024-02-21T00:58:16;14.07;;;8.77;;
2338;SDS011;1180;51.438;6.978;2024-02-21T01:00:42;18.80;;;10.40;;
2338;SDS011;1180;51.438;6.978;2024-02-21T01:03:07;20.10;;;10.30;;
2338;SDS011;1180;51.438;6.978;2024-02-21T01:05:32;21.83;;;11.13;;
2338;SDS011;1180;51.438;6.978;2024-02-21T01:07:58;15.93;;;9.47;;
2338;SDS011;1180;51.438;6.978;2024-02-21T01:10:23;20.60;;;10.93;;
2338;SDS011;1180;51.438;6.978;2024-02-21T01:12:49;14.50;;;10.67;;
2338;SDS011;1180;51.438;6.978;2024-02-21T01:15:14;16.33;;;9.07;;
2338;SDS011;1180;51.438;6.978;2024-02-21T01:17:39;15.77;;;9.00;;
2338;SDS011;1180;51.438;6.978;2024-02-21T01:20:05;21.20;;;10.07;;
2338;SDS011;1180;51.438;6.978;2024-02-21T01:22:32;14.90;;;9.53;;
2338;SDS011;1180;51.438;6.978;2024-02-21T01:24:57;17.33;;;10.20;;
2338;SDS011;1180;51.438;6.978;2024-02-21T01:27:23;15.67;;;8.80;;
2338;SDS011;1180;51.438;6.978;2024-02-21T01:29:49;16.00;;;9.37;;
2338;SDS011;1180;51.438;6.978;2024-02-21T01:32:15;18.27;;;10.37;;
2338;SDS011;1180;51.438;6.978;2024-02-21T01:34:41;24.00;;;10.77;;
2338;SDS011;1180;51.438;6.978;2024-02-21T01:37:06;20.87;;;10.23;;
2338;SDS011;1180;51.438;6.978;2024-02-21T01:39:32;19.87;;;9.40;;
2338;SDS011;1180;51.438;6.978;2024-02-21T01:41:58;16.83;;;9.60;;
2338;SDS011;1180;51.438;6.978;2024-02-21T01:44:24;20.60;;;9.87;;
2338;SDS011;1180;51.438;6.978;2024-02-21T01:46:49;16.30;;;9.90;;
2338;SDS011;1180;51.438;6.978;2024-02-21T01:49:16;18.07;;;9.87;;
2338;SDS011;1180;51.438;6.978;2024-02-21T01:51:42;13.77;;;9.17;;
2338;SDS011;1180;51.438;6.978;2024-02-21T01:54:09;15.60;;;9.47;;
2338;SDS011;1180;51.438;6.978;2024-02-21T01:56:35;21.33;;;10.60;;
2338;SDS011;1180;51.438;6.978;2024-02-21T01:59:00;16.40;;;9.23;;
2338;SDS011;1180;51.438;6.978;2024-02-21T02:01:26;22.27;;;9.87;;
2338;SDS011;1180;51.438;6.978;2024-02-21T02:03:51;16.57;;;8.63;;
2338;SDS011;1180;51.438;6.978;2024-02-21T02:06:17;19.37;;;9.43;;
2338;SDS011;1180;51.438;6.978;2024-02-21T02:08:43;14.37;;;9.73;;
2338;SDS011;1180;51.438;6.978;2024-02-21T02:11:09;17.80;;;8.80;;
2338;SDS011;1180;51.438;6.978;2024-02-21T02:13:35;21.70;;;9.63;;
2338;SDS011;1180;51.438;6.978;2024-02-21T02:16:01;17.33;;;10.17;;
2338;SDS011;1180;51.438;6.978;2024-02-21T02:18:26;23.20;;;9.53;;
2338;SDS011;1180;51.438;6.978;2024-02-21T02:20:52;19.53;;;10.13;;
2338;SDS011;1180;51.438;6.978;2024-02-21T02:23:26;13.77;;;9.33;;
2338;SDS011;1180;51.438;6.978;2024-02-21T02:25:54;20.07;;;10.00;;
2338;SDS011;1180;51.438;6.978;2024-02-21T02:28:19;16.50;;;8.80;;
2338;SDS011;1180;51.438;6.978;2024-02-21T02:30:46;11.93;;;8.57;;
2338;SDS011;1180;51.438;6.978;2024-02-21T02:33:11;17.10;;;9.20;;
2338;SDS011;1180;51.438;6.978;2024-02-21T02:35:37;15.60;;;9.30;;
2338;SDS011;1180;51.438;6.978;2024-02-21T02:38:03;16.43;;;9.67;;
2338;SDS011;1180;51.438;6.978;2024-02-21T02:40:29;20.43;;;10.10;;
2338;SDS011;1180;51.438;6.978;2024-02-21T02:42:54;14.27;;;8.40;;
2338;SDS011;1180;51.438;6.978;2024-02-21T02:45:20;17.67;;;9.00;;
2338;SDS011;1180;51.438;6.978;2024-02-21T02:47:48;16.47;;;9.43;;
2338;SDS011;1180;51.438;6.978;2024-02-21T02:50:13;17.53;;;8.93;;
2338;SDS011;1180;51.438;6.978;2024-02-21T02:52:39;18.27;;;8.30;;
2338;SDS011;1180;51.438;6.978;2024-02-21T02:55:05;16.70;;;9.20;;
2338;SDS011;1180;51.438;6.978;2024-02-21T02:57:31;15.70;;;9.03;;
2338;SDS011;1180;51.438;6.978;2024-02-21T02:59:56;12.67;;;7.80;;
2338;SDS011;1180;51.438;6.978;2024-02-21T03:02:21;21.37;;;8.90;;
2338;SDS011;1180;51.438;6.978;2024-02-21T03:04:47;13.53;;;9.03;;
2338;SDS011;1180;51.438;6.978;2024-02-21T03:07:13;20.20;;;10.50;;
2338;SDS011;1180;51.438;6.978;2024-02-21T03:09:39;14.67;;;7.60;;
2338;SDS011;1180;51.438;6.978;2024-02-21T03:12:05;15.20;;;9.83;;
2338;SDS011;1180;51.438;6.978;2024-02-21T03:14:34;14.47;;;8.80;;
2338;SDS011;1180;51.438;6.978;2024-02-21T03:17:00;14.17;;;9.03;;
2338;SDS011;1180;51.438;6.978;2024-02-21T03:19:26;15.13;;;8.90;;
2338;SDS011;1180;51.438;6.978;2024-02-21T03:21:51;18.50;;;8.90;;
2338;SDS011;1180;51.438;6.978;2024-02-21T03:24:18;12.10;;;8.83;;
2338;SDS011;1180;51.438;6.978;2024-02-21T03:26:43;15.13;;;8.93;;
2338;SDS011;1180;51.438;6.978;2024-02-21T03:29:10;12.70;;;8.03;;
2338;SDS011;1180;51.438;6.978;2024-02-21T03:31:36;16.87;;;8.83;;
2338;SDS011;1180;51.438;6.978;2024-02-21T03:34:02;14.17;;;8.60;;
2338;SDS011;1180;51.438;6.978;2024-02-21T03:36:27;13.10;;;7.63;;
2338;SDS011;1180;51.438;6.978;2024-02-21T03:38:54;18.40;;;9.70;;
2338;SDS011;1180;51.438;6.978;2024-02-21T03:41:19;12.20;;;8.10;;
2338;SDS011;1180;51.438;6.978;2024-02-21T03:43:45;11.17;;;7.73;;
2338;SDS011;1180;51.438;6.978;2024-02-21T03:46:10;17.83;;;8.67;;
2338;SDS011;1180;51.438;6.978;2024-02-21T03:48:35;16.77;;;8.47;;
2338;SDS011;1180;51.438;6.978;2024-02-21T03:51:01;17.27;;;8.90;;
2338;SDS011;1180;51.438;6.978;2024-02-21T03:53:27;18.20;;;9.00;;
2338;SDS011;1180;51.438;6.978;2024-02-21T03:55:53;11.60;;;7.97;;
2338;SDS011;1180;51.438;6.978;2024-02-21T03:58:19;13.67;;;7.60;;
2338;SDS011;1180;51.438;6.978;2024-02-21T04:00:44;11.13;;;7.33;;
2338;SDS011;1180;51.438;6.978;2024-02-21T04:03:10;25.33;;;10.90;;
2338;SDS011;1180;51.438;6.978;2024-02-21T04:05:35;19.77;;;8.60;;
2338;SDS011;1180;51.438;6.978;2024-02-21T04:08:03;19.87;;;9.03;;
2338;SDS011;1180;51.438;6.978;2024-02-21T04:10:29;9.53;;;7.57;;
2338;SDS011;1180;51.438;6.978;2024-02-21T04:12:55;12.00;;;9.00;;
2338;SDS011;1180;51.438;6.978;2024-02-21T04:15:20;16.00;;;8.70;;
2338;SDS011;1180;51.438;6.978;2024-02-21T04:17:46;23.23;;;8.03;;
2338;SDS011;1180;51.438;6.978;2024-02-21T04:20:15;15.13;;;7.70;;
2338;SDS011;1180;51.438;6.978;2024-02-21T04:22:42;13.30;;;8.00;;
2338;SDS011;1180;51.438;6.978;2024-02-21T04:25:09;13.43;;;7.90;;
2338;SDS011;1180;51.438;6.978;2024-02-21T04:27:35;13.23;;;7.70;;
2338;SDS011;1180;51.438;6.978;2024-02-21T04:30:01;14.97;;;7.13;;
2338;SDS011;1180;51.438;6.978;2024-02-21T04:32:27;14.00;;;7.30;;
2338;SDS011;1180;51.438;6.978;2024-02-21T04:34:53;13.80;;;7.03;;
2338;SDS011;1180;51.438;6.978;2024-02-21T04:37:18;15.93;;;8.13;;
2338;SDS011;1180;51.438;6.978;2024-02-21T04:39:44;19.57;;;8.40;;
2338;SDS011;1180;51.438;6.978;2024-02-21T04:42:09;15.43;;;7.73;;
2338;SDS011;1180;51.438;6.978;2024-02-21T04:44:35;13.30;;;7.73;;
2338;SDS011;1180;51.438;6.978;2024-02-21T04:47:00;14.03;;;7.90;;
2338;SDS011;1180;51.438;6.978;2024-02-21T04:49:25;17.30;;;7.60;;
2338;SDS011;1180;51.438;6.978;2024-02-21T04:51:51;14.07;;;6.50;;
2338;SDS011;1180;51.438;6.978;2024-02-21T04:54:16;12.63;;;6.70;;
2338;SDS011;1180;51.438;6.978;2024-02-21T04:56:42;9.27;;;6.57;;
2338;SDS011;1180;51.438;6.978;2024-02-21T04:59:07;13.20;;;7.07;;
2338;SDS011;1180;51.438;6.978;2024-02-21T05:01:33;12.07;;;5.93;;
2338;SDS011;1180;51.438;6.978;2024-02-21T05:03:58;9.73;;;6.77;;
2338;SDS011;1180;51.438;6.978;2024-02-21T05:06:23;9.50;;;6.07;;
2338;SDS011;1180;51.438;6.978;2024-02-21T05:08:49;10.37;;;6.47;;
2338;SDS011;1180;51.438;6.978;2024-02-21T05:11:14;14.50;;;7.17;;
2338;SDS011;1180;51.438;6.978;2024-02-21T05:13:39;14.23;;;7.43;;
2338;SDS011;1180;51.438;6.978;2024-02-21T05:16:05;10.60;;;6.90;;
2338;SDS011;1180;51.438;6.978;2024-02-21T05:18:31;8.90;;;6.17;;
2338;SDS011;1180;51.438;6.978;2024-02-21T05:20:56;11.63;;;7.33;;
2338;SDS011;1180;51.438;6.978;2024-02-21T05:23:22;11.07;;;7.33;;
2338;SDS011;1180;51.438;6.978;2024-02-21T05:25:47;18.73;;;7.37;;
2338;SDS011;1180;51.438;6.978;2024-02-21T05:28:12;11.17;;;6.10;;
2338;SDS011;1180;51.438;6.978;2024-02-21T05:30:38;11.37;;;6.03;;
2338;SDS011;1180;51.438;6.978;2024-02-21T05:33:06;8.73;;;6.13;;
2338;SDS011;1180;51.438;6.978;2024-02-21T05:35:32;14.40;;;6.00;;
2338;SDS011;1180;51.438;6.978;2024-02-21T05:37:57;13.90;;;7.03;;
2338;SDS011;1180;51.438;6.978;2024-02-21T05:40:24;16.47;;;6.20;;
2338;SDS011;1180;51.438;6.978;2024-02-21T05:42:50;11.73;;;6.80;;
2338;SDS011;1180;51.438;6.978;2024-02-21T05:45:16;13.70;;;6.50;;
2338;SDS011;1180;51.438;6.978;2024-02-21T05:47:42;11.20;;;6.33;;
2338;SDS011;1180;51.438;6.978;2024-02-21T05:50:08;8.73;;;6.10;;
2338;SDS011;1180;51.438;6.978;2024-02-21T05:52:34;12.33;;;6.00;;
2338;SDS011;1180;51.438;6.978;2024-02-21T05:54:59;12.60;;;6.77;;
2338;SDS011;1180;51.438;6.978;2024-02-21T05:57:24;9.37;;;5.70;;
2338;SDS011;1180;51.438;6.978;2024-02-21T05:59:50;10.17;;;5.50;;
2338;SDS011;1180;51.438;6.978;2024-02-21T06:02:15;15.37;;;6.10;;
2338;SDS011;1180;51.438;6.978;2024-02-21T06:04:41;8.80;;;5.30;;
2338;SDS011;1180;51.438;6.978;2024-02-21T06:07:07;8.70;;;6.10;;
2338;SDS011;1180;51.438;6.978;2024-02-21T06:09:33;11.30;;;6.47;;
2338;SDS011;1180;51.438;6.978;2024-02-21T06:11:59;9.67;;;5.73;;
2338;SDS011;1180;51.438;6.978;2024-02-21T06:14:24;9.00;;;5.87;;
2338;SDS011;1180;51.438;6.978;2024-02-21T06:16:50;10.57;;;5.73;;
2338;SDS011;1180;51.438;6.978;2024-02-21T06:19:15;10.30;;;5.13;;
2338;SDS011;1180;51.438;6.978;2024-02-21T06:21:40;6.93;;;5.27;;
2338;SDS011;1180;51.438;6.978;2024-02-21T06:24:06;9.57;;;4.87;;
2338;SDS011;1180;51.438;6.978;2024-02-21T06:26:31;12.73;;;5.90;;
2338;SDS011;1180;51.438;6.978;2024-02-21T06:28:56;10.67;;;6.57;;
2338;SDS011;1180;51.438;6.978;2024-02-21T06:31:22;9.50;;;4.60;;
2338;SDS011;1180;51.438;6.978;2024-02-21T06:33:47;8.30;;;4.83;;
2338;SDS011;1180;51.438;6.978;2024-02-21T06:36:13;12.43;;;4.47;;
2338;SDS011;1180;51.438;6.978;2024-02-21T06:38:38;11.23;;;5.10;;
2338;SDS011;1180;51.438;6.978;2024-02-21T06:41:03;10.67;;;5.80;;
2338;SDS011;1180;51.438;6.978;2024-02-21T06:43:29;9.90;;;5.37;;
2338;SDS011;1180;51.438;6.978;2024-02-21T06:45:54;9.73;;;4.83;;
2338;SDS011;1180;51.438;6.978;2024-02-21T06:48:21;10.53;;;4.90;;
2338;SDS011;1180;51.438;6.978;2024-02-21T06:50:47;6.43;;;5.20;;
2338;SDS011;1180;51.438;6.978;2024-02-21T06:53:13;10.47;;;5.20;;
2338;SDS011;1180;51.438;6.978;2024-02-21T06:55:38;8.53;;;4.33;;
2338;SDS011;1180;51.438;6.978;2024-02-21T06:58:04;9.30;;;4.73;;
2338;SDS011;1180;51.438;6.978;2024-02-21T07:00:29;11.03;;;5.33;;
2338;SDS011;1180;51.438;6.978;2024-02-21T07:02:55;14.17;;;5.40;;
2338;SDS011;1180;51.438;6.978;2024-02-21T07:05:20;9.00;;;4.70;;
2338;SDS011;1180;51.438;6.978;2024-02-21T07:07:46;7.77;;;5.10;;
2338;SDS011;1180;51.438;6.978;2024-02-21T07:10:11;10.77;;;4.90;;
2338;SDS011;1180;51.438;6.978;2024-02-21T07:12:37;7.37;;;5.17;;
2338;SDS011;1180;51.438;6.978;2024-02-21T07:15:08;8.57;;;5.10;;
2338;SDS011;1180;51.438;6.978;2024-02-21T07:17:34;10.73;;;6.17;;
2338;SDS011;1180;51.438;6.978;2024-02-21T07:19:59;6.10;;;4.13;;
2338;SDS011;1180;51.438;6.978;2024-02-21T07:22:26;13.93;;;7.10;;
2338;SDS011;1180;51.438;6.978;2024-02-21T07:24:51;8.30;;;5.03;;
2338;SDS011;1180;51.438;6.978;2024-02-21T07:27:17;10.83;;;5.53;;
2338;SDS011;1180;51.438;6.978;2024-02-21T07:29:42;7.50;;;5.00;;
2338;SDS011;1180;51.438;6.978;2024-02-21T07:32:07;9.40;;;4.80;;
2338;SDS011;1180;51.438;6.978;2024-02-21T07:34:33;7.73;;;4.70;;
2338;SDS011;1180;51.438;6.978;2024-02-21T07:36:58;8.70;;;6.07;;
2338;SDS011;1180;51.438;6.978;2024-02-21T07:39:23;9.23;;;4.93;;
2338;SDS011;1180;51.438;6.978;2024-02-21T07:41:49;10.90;;;5.73;;
2338;SDS011;1180;51.438;6.978;2024-02-21T07:44:15;7.77;;;5.00;;
2338;SDS011;1180;51.438;6.978;2024-02-21T07:46:40;9.80;;;4.53;;
2338;SDS011;1180;51.438;6.978;2024-02-21T07:49:09;7.13;;;4.47;;
2338;SDS011;1180;51.438;6.978;2024-02-21T07:51:35;7.90;;;4.17;;
2338;SDS011;1180;51.438;6.978;2024-02-21T07:54:01;7.57;;;5.00;;
2338;SDS011;1180;51.438;6.978;2024-02-21T07:56:29;7.13;;;4.73;;
2338;SDS011;1180;51.438;6.978;2024-02-21T07:58:54;9.77;;;5.53;;
2338;SDS011;1180;51.438;6.978;2024-02-21T08:01:20;12.60;;;5.47;;
2338;SDS011;1180;51.438;6.978;2024-02-21T08:03:46;10.50;;;5.00;;
2338;SDS011;1180;51.438;6.978;2024-02-21T08:06:12;6.30;;;4.23;;
2338;SDS011;1180;51.438;6.978;2024-02-21T08:08:38;8.73;;;4.80;;
2338;SDS011;1180;51.438;6.978;2024-02-21T08:11:03;8.80;;;4.47;;
2338;SDS011;1180;51.438;6.978;2024-02-21T08:13:29;7.47;;;4.00;;
2338;SDS011;1180;51.438;6.978;2024-02-21T08:15:54;11.27;;;4.17;;
2338;SDS011;1180;51.438;6.978;2024-02-21T08:18:20;7.13;;;4.10;;
2338;SDS011;1180;51.438;6.978;2024-02-21T08:20:45;6.77;;;4.60;;
2338;SDS011;1180;51.438;6.978;2024-02-21T08:23:11;7.90;;;4.13;;
2338;SDS011;1180;51.438;6.978;2024-02-21T08:25:36;8.17;;;3.60;;
2338;SDS011;1180;51.438;6.978;2024-02-21T08:28:01;9.90;;;4.20;;
2338;SDS011;1180;51.438;6.978;2024-02-21T08:30:27;10.70;;;4.97;;
2338;SDS011;1180;51.438;6.978;2024-02-21T08:32:52;7.73;;;4.40;;
2338;SDS011;1180;51.438;6.978;2024-02-21T08:35:21;8.50;;;4.40;;
2338;SDS011;1180;51.438;6.978;2024-02-21T08:37:49;7.03;;;4.30;;
2338;SDS011;1180;51.438;6.978;2024-02-21T08:40:15;6.70;;;4.13;;
2338;SDS011;1180;51.438;6.978;2024-02-21T08:42:44;8.40;;;4.40;;
2338;SDS011;1180;51.438;6.978;2024-02-21T08:45:10;7.00;;;4.20;;
2338;SDS011;1180;51.438;6.978;2024-02-21T08:47:35;8.00;;;4.87;;
2338;SDS011;1180;51.438;6.978;2024-02-21T08:50:01;13.50;;;5.57;;
2338;SDS011;1180;51.438;6.978;2024-02-21T08:52:27;9.87;;;4.40;;
2338;SDS011;1180;51.438;6.978;2024-02-21T08:54:53;12.47;;;5.00;;
2338;SDS011;1180;51.438;6.978;2024-02-21T08:57:18;5.00;;;3.90;;
2338;SDS011;1180;51.438;6.978;2024-02-21T08:59:44;8.93;;;4.10;;
2338;SDS011;1180;51.438;6.978;2024-02-21T09:02:10;6.77;;;4.30;;
2338;SDS011;1180;51.438;6.978;2024-02-21T09:04:35;10.20;;;4.60;;
2338;SDS011;1180;51.438;6.978;2024-02-21T09:07:00;7.83;;;3.80;;
2338;SDS011;1180;51.438;6.978;2024-02-21T09:09:26;7.30;;;5.27;;
2338;SDS011;1180;51.438;6.978;2024-02-21T09:11:53;6.40;;;4.50;;
2338;SDS011;1180;51.438;6.978;2024-02-21T09:14:19;8.63;;;4.57;;
2338;SDS011;1180;51.438;6.978;2024-02-21T09:16:44;10.03;;;3.73;;
2338;SDS011;1180;51.438;6.978;2024-02-21T09:19:10;6.20;;;3.80;;
2338;SDS011;1180;51.438;6.978;2024-02-21T09:21:39;9.23;;;4.80;;
2338;SDS011;1180;51.438;6.978;2024-02-21T09:24:05;7.20;;;3.37;;
2338;SDS011;1180;51.438;6.978;2024-02-21T09:26:31;13.13;;;4.00;;
2338;SDS011;1180;51.438;6.978;2024-02-21T09:28:56;11.47;;;4.27;;
2338;SDS011;1180;51.438;6.978;2024-02-21T09:31:22;8.83;;;3.20;;
2338;SDS011;1180;51.438;6.978;2024-02-21T09:33:47;7.40;;;3.87;;
2338;SDS011;1180;51.438;6.978;2024-02-21T09:36:12;9.03;;;3.80;;
2338;SDS011;1180;51.438;6.978;2024-02-21T09:38:39;4.57;;;2.60;;
2338;SDS011;1180;51.438;6.978;2024-02-21T09:41:18;7.27;;;3.83;;
2338;SDS011;1180;51.438;6.978;2024-02-21T09:43:47;12.73;;;3.70;;
2338;SDS011;1180;51.438;6.978;2024-02-21T09:46:18;11.73;;;4.23;;
2338;SDS011;1180;51.438;6.978;2024-02-21T09:48:53;8.53;;;3.97;;
2338;SDS011;1180;51.438;6.978;2024-02-21T09:51:32;5.53;;;3.37;;
2338;SDS011;1180;51.438;6.978;2024-02-21T09:53:59;4.70;;;3.00;;
2338;SDS011;1180;51.438;6.978;2024-02-21T09:56:25;10.80;;;3.73;;
2338;SDS011;1180;51.438;6.978;2024-02-21T09:58:51;6.37;;;3.23;;
2338;SDS011;1180;51.438;6.978;2024-02-21T10:01:16;6.43;;;4.37;;
2338;SDS011;1180;51.438;6.978;2024-02-21T10:03:41;6.90;;;4.03;;
2338;SDS011;1180;51.438;6.978;2024-02-21T10:06:08;8.00;;;3.60;;
2338;SDS011;1180;51.438;6.978;2024-02-21T10:08:35;10.07;;;4.23;;
2338;SDS011;1180;51.438;6.978;2024-02-21T10:11:00;12.20;;;4.47;;
2338;SDS011;1180;51.438;6.978;2024-02-21T10:13:28;6.60;;;4.00;;
2338;SDS011;1180;51.438;6.978;2024-02-21T10:16:01;7.57;;;4.27;;
2338;SDS011;1180;51.438;6.978;2024-02-21T10:18:31;6.73;;;4.83;;
2338;SDS011;1180;51.438;6.978;2024-02-21T10:21:15;9.77;;;4.90;;
2338;SDS011;1180;51.438;6.978;2024-02-21T10:23:42;10.67;;;4.13;;
2338;SDS011;1180;51.438;6.978;2024-02-21T10:26:08;10.67;;;4.30;;
2338;SDS011;1180;51.438;6.978;2024-02-21T10:28:34;9.53;;;4.37;;
2338;SDS011;1180;51.438;6.978;2024-02-21T10:30:59;6.73;;;3.67;;
2338;SDS011;1180;51.438;6.978;2024-02-21T10:33:25;7.30;;;3.60;;
2338;SDS011;1180;51.438;6.978;2024-02-21T10:35:52;6.07;;;3.70;;
2338;SDS011;1180;51.438;6.978;2024-02-21T10:38:18;5.13;;;3.07;;
2338;SDS011;1180;51.438;6.978;2024-02-21T10:40:43;6.83;;;3.17;;
2338;SDS011;1180;51.438;6.978;2024-02-21T10:43:12;7.17;;;3.60;;
2338;SDS011;1180;51.438;6.978;2024-02-21T10:45:39;11.47;;;3.77;;
2338;SDS011;1180;51.438;6.978;2024-02-21T10:50:47;3.93;;;3.17;;
2338;SDS011;1180;51.438;6.978;2024-02-21T10:53:19;7.33;;;3.40;;
2338;SDS011;1180;51.438;6.978;2024-02-21T10:59:03;8.37;;;3.53;;
2338;SDS011;1180;51.438;6.978;2024-02-21T11:01:30;7.47;;;3.60;;
2338;SDS011;1180;51.438;6.978;2024-02-21T11:04:06;5.67;;;4.50;;
2338;SDS011;1180;51.438;6.978;2024-02-21T11:06:34;6.40;;;4.00;;
2338;SDS011;1180;51.438;6.978;2024-02-21T11:09:02;5.37;;;3.50;;
2338;SDS011;1180;51.438;6.978;2024-02-21T11:14:19;5.43;;;3.10;;
2338;SDS011;1180;51.438;6.978;2024-02-21T11:16:46;6.30;;;3.60;;
2338;SDS011;1180;51.438;6.978;2024-02-21T11:21:45;4.80;;;3.10;;
2338;SDS011;1180;51.438;6.978;2024-02-21T11:24:10;8.00;;;3.70;;
2338;SDS011;1180;51.438;6.978;2024-02-21T11:26:39;5.13;;;3.40;;
2338;SDS011;1180;51.438;6.978;2024-02-21T11:29:07;4.30;;;3.20;;
2338;SDS011;1180;51.438;6.978;2024-02-21T11:31:43;3.33;;;2.90;;
2338;SDS011;1180;51.438;6.978;2024-02-21T11:34:13;4.83;;;3.20;;
2338;SDS011;1180;51.438;6.978;2024-02-21T11:36:52;4.80;;;2.87;;
2338;SDS011;1180;51.438;6.978;2024-02-21T11:39:18;6.87;;;3.77;;
2338;SDS011;1180;51.438;6.978;2024-02-21T11:41:59;6.00;;;3.50;;
2338;SDS011;1180;51.438;6.978;2024-02-21T11:44:32;9.60;;;3.70;;
2338;SDS011;1180;51.438;6.978;2024-02-21T11:47:05;5.20;;;3.27;;
2338;SDS011;1180;51.438;6.978;2024-02-21T11:49:36;5.40;;;3.40;;
2338;SDS011;1180;51.438;6.978;2024-02-21T11:52:08;6.17;;;3.33;;
2338;SDS011;1180;51.438;6.978;2024-02-21T11:54:33;5.40;;;4.10;;
2338;SDS011;1180;51.438;6.978;2024-02-21T11:57:00;6.40;;;2.80;;
2338;SDS011;1180;51.438;6.978;2024-02-21T11:59:26;7.70;;;4.00;;
2338;SDS011;1180;51.438;6.978;2024-02-21T12:01:52;7.70;;;3.90;;
2338;SDS011;1180;51.438;6.978;2024-02-21T12:04:18;5.27;;;2.80;;
2338;SDS011;1180;51.438;6.978;2024-02-21T12:06:45;9.07;;;4.50;;
2338;SDS011;1180;51.438;6.978;2024-02-21T12:09:17;8.10;;;3.67;;
2338;SDS011;1180;51.438;6.978;2024-02-21T12:11:43;6.70;;;3.70;;
2338;SDS011;1180;51.438;6.978;2024-02-21T12:14:09;6.20;;;3.60;;
2338;SDS011;1180;51.438;6.978;2024-02-21T12:16:35;5.40;;;3.47;;
2338;SDS011;1180;51.438;6.978;2024-02-21T12:19:06;7.20;;;3.07;;
2338;SDS011;1180;51.438;6.978;2024-02-21T12:21:34;8.73;;;4.33;;
2338;SDS011;1180;51.438;6.978;2024-02-21T12:24:11;5.67;;;3.20;;
2338;SDS011;1180;51.438;6.978;2024-02-21T12:26:40;9.73;;;3.30;;
2338;SDS011;1180;51.438;6.978;2024-02-21T12:29:06;7.20;;;3.23;;
2338;SDS011;1180;51.438;6.978;2024-02-21T12:31:34;7.20;;;3.60;;
2338;SDS011;1180;51.438;6.978;2024-02-21T12:34:03;5.43;;;3.03;;
2338;SDS011;1180;51.438;6.978;2024-02-21T12:36:30;7.93;;;3.17;;
2338;SDS011;1180;51.438;6.978;2024-02-21T12:38:56;4.90;;;2.73;;
2338;SDS011;1180;51.438;6.978;2024-02-21T12:41:23;7.90;;;4.23;;
2338;SDS011;1180;51.438;6.978;2024-02-21T12:43:50;6.73;;;3.23;;
2338;SDS011;1180;51.438;6.978;2024-02-21T12:46:16;9.57;;;3.40;;
2338;SDS011;1180;51.438;6.978;2024-02-21T12:48:41;6.07;;;2.87;;
2338;SDS011;1180;51.438;6.978;2024-02-21T12:51:07;7.70;;;3.30;;
2338;SDS011;1180;51.438;6.978;2024-02-21T12:53:33;6.10;;;3.20;;
2338;SDS011;1180;51.438;6.978;2024-02-21T12:55:58;8.13;;;2.60;;
2338;SDS011;1180;51.438;6.978;2024-02-21T12:58:24;8.03;;;3.10;;
2338;SDS011;1180;51.438;6.978;2024-02-21T13:00:49;5.50;;;3.27;;
2338;SDS011;1180;51.438;6.978;2024-02-21T13:03:14;5.33;;;2.43;;
2338;SDS011;1180;51.438;6.978;2024-02-21T13:05:40;7.20;;;2.80;;
2338;SDS011;1180;51.438;6.978;2024-02-21T13:08:06;6.93;;;3.10;;
2338;SDS011;1180;51.438;6.978;2024-02-21T13:10:31;8.20;;;2.60;;
2338;SDS011;1180;51.438;6.978;2024-02-21T13:12:59;6.03;;;3.00;;
2338;SDS011;1180;51.438;6.978;2024-02-21T13:15:24;10.13;;;4.27;;
2338;SDS011;1180;51.438;6.978;2024-02-21T13:17:50;3.77;;;2.33;;
2338;SDS011;1180;51.438;6.978;2024-02-21T13:20:15;5.83;;;3.03;;
2338;SDS011;1180;51.438;6.978;2024-02-21T13:22:40;4.50;;;2.50;;
2338;SDS011;1180;51.438;6.978;2024-02-21T13:25:06;4.63;;;2.40;;
2338;SDS011;1180;51.438;6.978;2024-02-21T13:27:32;5.37;;;3.13;;
2338;SDS011;1180;51.438;6.978;2024-02-21T13:29:58;7.07;;;3.10;;
2338;SDS011;1180;51.438;6.978;2024-02-21T13:32:25;4.10;;;3.10;;
2338;SDS011;1180;51.438;6.978;2024-02-21T13:34:50;9.00;;;3.13;;
2338;SDS011;1180;51.438;6.978;2024-02-21T13:37:17;6.60;;;3.03;;
2338;SDS011;1180;51.438;6.978;2024-02-21T13:39:43;6.13;;;2.73;;
2338;SDS011;1180;51.438;6.978;2024-02-21T13:42:08;5.87;;;2.80;;
2338;SDS011;1180;51.438;6.978;2024-02-21T13:44:33;6.30;;;2.90;;
2338;SDS011;1180;51.438;6.978;2024-02-21T13:46:59;11.63;;;3.53;;
2338;SDS011;1180;51.438;6.978;2024-02-21T13:49:24;6.90;;;2.97;;
2338;SDS011;1180;51.438;6.978;2024-02-21T13:51:50;7.53;;;2.57;;
2338;SDS011;1180;51.438;6.978;2024-02-21T13:54:15;6.77;;;2.90;;
2338;SDS011;1180;51.438;6.978;2024-02-21T13:56:44;10.10;;;3.17;;
2338;SDS011;1180;51.438;6.978;2024-02-21T13:59:11;5.40;;;2.43;;
2338;SDS011;1180;51.438;6.978;2024-02-21T14:01:38;4.50;;;2.93;;
2338;SDS011;1180;51.438;6.978;2024-02-21T14:04:03;5.20;;;2.60;;
2338;SDS011;1180;51.438;6.978;2024-02-21T14:06:29;6.07;;;2.73;;
2338;SDS011;1180;51.438;6.978;2024-02-21T14:08:54;5.57;;;2.57;;
2338;SDS011;1180;51.438;6.978;2024-02-21T14:11:20;7.67;;;3.13;;
2338;SDS011;1180;51.438;6.978;2024-02-21T14:13:45;5.70;;;2.40;;
2338;SDS011;1180;51.438;6.978;2024-02-21T14:16:10;6.43;;;2.30;;
2338;SDS011;1180;51.438;6.978;2024-02-21T14:18:39;6.13;;;3.00;;
2338;SDS011;1180;51.438;6.978;2024-02-21T14:21:08;5.30;;;2.43;;
2338;SDS011;1180;51.438;6.978;2024-02-21T14:23:37;4.13;;;2.70;;
2338;SDS011;1180;51.438;6.978;2024-02-21T14:26:03;8.47;;;2.80;;
2338;SDS011;1180;51.438;6.978;2024-02-21T14:28:29;7.63;;;3.03;;
2338;SDS011;1180;51.438;6.978;2024-02-21T14:30:55;3.13;;;2.83;;
2338;SDS011;1180;51.438;6.978;2024-02-21T14:33:23;8.37;;;2.50;;
2338;SDS011;1180;51.438;6.978;2024-02-21T14:35:49;7.33;;;3.27;;
2338;SDS011;1180;51.438;6.978;2024-02-21T14:38:16;5.30;;;3.43;;
2338;SDS011;1180;51.438;6.978;2024-02-21T14:40:41;3.33;;;3.00;;
2338;SDS011;1180;51.438;6.978;2024-02-21T14:43:07;5.50;;;2.67;;
2338;SDS011;1180;51.438;6.978;2024-02-21T14:45:33;3.40;;;2.53;;
2338;SDS011;1180;51.438;6.978;2024-02-21T14:47:59;6.00;;;2.80;;
2338;SDS011;1180;51.438;6.978;2024-02-21T14:50:24;4.60;;;2.33;;
2338;SDS011;1180;51.438;6.978;2024-02-21T14:52:50;4.60;;;2.90;;
2338;SDS011;1180;51.438;6.978;2024-02-21T14:55:15;3.57;;;2.40;;
2338;SDS011;1180;51.438;6.978;2024-02-21T14:57:41;5.90;;;2.53;;
2338;SDS011;1180;51.438;6.978;2024-02-21T15:00:08;5.80;;;2.53;;
2338;SDS011;1180;51.438;6.978;2024-02-21T15:02:33;5.73;;;2.90;;
2338;SDS011;1180;51.438;6.978;2024-02-21T15:05:00;7.10;;;2.70;;
2338;SDS011;1180;51.438;6.978;2024-02-21T15:07:25;6.70;;;2.50;;
2338;SDS011;1180;51.438;6.978;2024-02-21T15:09:51;6.23;;;2.80;;
2338;SDS011;1180;51.438;6.978;2024-02-21T15:12:17;8.33;;;2.70;;